createdAt,value
2023-08-06T00:01:02.342Z,100702.94
2023-08-06T00:03:29.857Z,100696.34
2023-08-06T00:05:57.190Z,100695.00
2023-08-06T00:08:24.482Z,100697.63
2023-08-06T00:10:51.799Z,100705.63
2023-08-06T00:13:19.148Z,100702.44
2023-08-06T00:15:46.365Z,100701.59
2023-08-06T00:18:13.693Z,100688.34
2023-08-06T00:20:42.104Z,100687.03
2023-08-06T00:23:09.840Z,100682.13
2023-08-06T00:25:38.058Z,100672.97
2023-08-06T00:28:05.430Z,100639.66
2023-08-06T00:30:32.734Z,100623.22
2023-08-06T00:32:59.944Z,100606.72
2023-08-06T00:35:27.190Z,100591.56
2023-08-06T00:37:54.493Z,100575.50
2023-08-06T00:40:23.706Z,100565.84
2023-08-06T00:42:50.992Z,100547.03
2023-08-06T00:45:18.265Z,100530.78
2023-08-06T00:47:47.147Z,100537.09
2023-08-06T00:50:14.798Z,100515.66
2023-08-06T00:52:42.110Z,100503.63
2023-08-06T00:55:09.841Z,100497.22
2023-08-06T00:57:37.139Z,100502.81
2023-08-06T01:00:05.652Z,100492.66
2023-08-06T01:02:33.072Z,100491.59
2023-08-06T01:05:00.430Z,100496.59
2023-08-06T01:08:04.815Z,100490.13
2023-08-06T01:10:41.575Z,100496.91
2023-08-06T01:13:23.814Z,100495.16
2023-08-06T01:15:54.439Z,100490.66
2023-08-06T01:18:21.703Z,100489.72
2023-08-06T01:20:51.000Z,100479.91
2023-08-06T01:23:19.455Z,100477.72
2023-08-06T01:25:58.585Z,100473.91
2023-08-06T01:28:42.686Z,100470.94
2023-08-06T01:31:19.671Z,100467.41
2023-08-06T01:33:49.662Z,100469.00
2023-08-06T01:36:19.072Z,100469.88
2023-08-06T01:38:46.368Z,100460.06
2023-08-06T01:41:13.654Z,100468.34
2023-08-06T01:43:40.984Z,100456.19
2023-08-06T01:46:08.210Z,100458.28
2023-08-06T01:48:35.510Z,100447.81
2023-08-06T01:51:05.625Z,100438.63
2023-08-06T01:53:34.949Z,100426.69
2023-08-06T01:56:02.511Z,100426.69
2023-08-06T01:58:30.176Z,100413.69
2023-08-06T02:00:57.815Z,100413.69
2023-08-06T02:03:25.761Z,100401.06
2023-08-06T02:05:55.632Z,100402.09
2023-08-06T02:08:23.070Z,100408.44
2023-08-06T02:10:50.542Z,100417.72
2023-08-06T02:13:17.748Z,100406.84
2023-08-06T02:15:46.181Z,100421.94
2023-08-06T02:18:13.421Z,100424.56
2023-08-06T02:20:40.577Z,100413.22
2023-08-06T02:23:07.855Z,100422.72
2023-08-06T02:25:35.105Z,100425.91
2023-08-06T02:28:06.057Z,100422.38
2023-08-06T02:30:33.759Z,100425.19
2023-08-06T02:33:00.924Z,100423.53
2023-08-06T02:35:28.104Z,100418.16
2023-08-06T02:37:55.436Z,100413.19
2023-08-06T02:40:22.648Z,100414.56
2023-08-06T02:42:49.822Z,100422.84
2023-08-06T02:45:16.983Z,100415.00
2023-08-06T02:47:44.327Z,100420.81
2023-08-06T02:50:11.562Z,100425.44
2023-08-06T02:52:39.947Z,100421.06
2023-08-06T02:55:08.127Z,100420.88
2023-08-06T02:57:35.358Z,100431.00
2023-08-06T03:00:03.157Z,100438.28
2023-08-06T03:02:30.506Z,100427.03
2023-08-06T03:04:57.921Z,100409.91
2023-08-06T03:07:25.189Z,100410.25
2023-08-06T03:09:52.360Z,100406.41
2023-08-06T03:12:19.509Z,100412.28
2023-08-06T03:14:46.764Z,100414.75
2023-08-06T03:17:13.946Z,100394.56
2023-08-06T03:19:41.174Z,100397.09
2023-08-06T03:22:08.467Z,100397.53
2023-08-06T03:24:35.607Z,100394.81
2023-08-06T03:27:02.960Z,100391.03
2023-08-06T03:29:30.301Z,100389.81
2023-08-06T03:31:57.465Z,100383.28
2023-08-06T03:34:24.856Z,100382.59
2023-08-06T03:36:52.016Z,100376.56
2023-08-06T03:39:19.130Z,100378.13
2023-08-06T03:41:46.532Z,100383.47
2023-08-06T03:44:13.702Z,100377.78
2023-08-06T03:46:41.014Z,100372.69
2023-08-06T03:49:08.386Z,100368.91
2023-08-06T03:51:35.661Z,100361.38
2023-08-06T03:54:02.909Z,100353.03
2023-08-06T03:56:30.179Z,100355.06
2023-08-06T03:58:57.326Z,100349.69
2023-08-06T04:01:24.593Z,100349.09
2023-08-06T04:03:51.772Z,100358.97
2023-08-06T04:06:19.018Z,100360.13
2023-08-06T04:08:46.318Z,100355.38
2023-08-06T04:11:14.759Z,100357.53
2023-08-06T04:13:45.331Z,100361.13
2023-08-06T04:16:13.619Z,100364.69
2023-08-06T04:18:40.920Z,100362.31
2023-08-06T04:21:08.076Z,100350.63
2023-08-06T04:23:35.362Z,100346.09
2023-08-06T04:26:02.606Z,100354.00
2023-08-06T04:28:29.788Z,100352.56
2023-08-06T04:30:57.027Z,100347.84
2023-08-06T04:33:24.279Z,100343.72
2023-08-06T04:35:58.110Z,100341.00
2023-08-06T04:38:28.534Z,100322.13
2023-08-06T04:40:55.794Z,100322.28
2023-08-06T04:43:23.032Z,100311.03
2023-08-06T04:45:51.650Z,100315.88
2023-08-06T04:48:19.007Z,100307.25
2023-08-06T04:50:47.580Z,100308.97
2023-08-06T04:53:15.208Z,100301.69
2023-08-06T04:55:42.661Z,100299.84
2023-08-06T04:58:14.030Z,100288.19
2023-08-06T05:00:41.259Z,100282.88
2023-08-06T05:03:08.588Z,100280.91
2023-08-06T05:05:36.201Z,100284.69
2023-08-06T05:08:03.493Z,100291.44
2023-08-06T05:10:30.798Z,100284.16
2023-08-06T05:12:58.057Z,100286.09
2023-08-06T05:15:26.592Z,100290.53
2023-08-06T05:17:53.963Z,100285.59
2023-08-06T05:20:22.158Z,100287.97
2023-08-06T05:22:49.319Z,100289.22
2023-08-06T05:25:16.541Z,100303.56
2023-08-06T05:27:43.923Z,100298.97
2023-08-06T05:30:11.675Z,100299.53
2023-08-06T05:32:38.948Z,100303.41
2023-08-06T05:35:07.464Z,100307.16
2023-08-06T05:37:34.780Z,100308.47
2023-08-06T05:40:03.109Z,100301.97
2023-08-06T05:42:30.240Z,100306.91
2023-08-06T05:44:57.458Z,100310.13
2023-08-06T05:47:24.828Z,100309.84
2023-08-06T05:49:52.039Z,100319.31
2023-08-06T05:52:19.385Z,100311.63
2023-08-06T05:54:46.631Z,100313.38
2023-08-06T05:57:13.980Z,100317.66
2023-08-06T05:59:42.123Z,100327.97
2023-08-06T06:02:09.584Z,100337.00
2023-08-06T06:04:36.870Z,100322.22
2023-08-06T06:07:04.356Z,100325.94
2023-08-06T06:09:31.659Z,100333.81
2023-08-06T06:11:58.932Z,100336.09
2023-08-06T06:14:26.242Z,100332.66
2023-08-06T06:16:54.309Z,100336.94
2023-08-06T06:19:21.949Z,100333.38
2023-08-06T06:21:49.163Z,100340.47
2023-08-06T06:24:16.669Z,100335.19
2023-08-06T06:26:43.888Z,100333.72
2023-08-06T06:29:11.194Z,100337.97
2023-08-06T06:31:38.444Z,100325.63
2023-08-06T06:34:05.773Z,100331.78
2023-08-06T06:36:33.008Z,100329.75
2023-08-06T06:39:00.299Z,100329.72
2023-08-06T06:41:27.746Z,100332.44
2023-08-06T06:43:54.969Z,100330.94
2023-08-06T06:46:22.325Z,100332.22
2023-08-06T06:48:49.450Z,100334.63
2023-08-06T06:51:16.639Z,100335.16
2023-08-06T06:53:43.933Z,100337.56
2023-08-06T06:56:11.193Z,100324.19
2023-08-06T06:58:40.643Z,100305.25
2023-08-06T07:01:11.323Z,100278.53
2023-08-06T07:03:38.976Z,100255.28
2023-08-06T07:06:07.111Z,100243.34
2023-08-06T07:08:34.598Z,100225.41
2023-08-06T07:11:06.047Z,100208.75
2023-08-06T07:13:34.276Z,100202.16
2023-08-06T07:16:01.522Z,100186.41
2023-08-06T07:18:28.676Z,100176.06
2023-08-06T07:20:56.749Z,100167.69
2023-08-06T07:23:26.297Z,100157.94
2023-08-06T07:25:53.622Z,100144.34
2023-08-06T07:28:21.168Z,100134.13
2023-08-06T07:30:48.753Z,100125.00
2023-08-06T07:33:16.231Z,100094.94
2023-08-06T07:35:44.506Z,100095.50
2023-08-06T07:38:11.804Z,100096.38
2023-08-06T07:40:40.045Z,100089.34
2023-08-06T07:43:07.253Z,100068.38
2023-08-06T07:45:38.686Z,100067.31
2023-08-06T07:48:06.239Z,100056.69
2023-08-06T07:50:34.016Z,100052.84
2023-08-06T07:53:01.273Z,100033.81
2023-08-06T07:55:30.028Z,100025.50
2023-08-06T07:57:58.415Z,100024.91
2023-08-06T08:00:26.280Z,100008.78
2023-08-06T08:02:53.501Z,100007.19
2023-08-06T08:05:21.139Z,99992.66
2023-08-06T08:07:48.482Z,99985.41
2023-08-06T08:10:15.663Z,99989.34
2023-08-06T08:12:43.824Z,99978.53
2023-08-06T08:15:11.192Z,99976.91
2023-08-06T08:17:38.915Z,99975.41
2023-08-06T08:20:06.922Z,99970.13
2023-08-06T08:22:34.306Z,99951.91
2023-08-06T08:25:01.590Z,99958.66
2023-08-06T08:27:28.848Z,99962.78
2023-08-06T08:29:56.008Z,99960.06
2023-08-06T08:32:23.294Z,99960.16
2023-08-06T08:34:50.665Z,99959.38
2023-08-06T08:37:17.889Z,99955.50
2023-08-06T08:39:45.193Z,99965.13
2023-08-06T08:42:12.495Z,99956.88
2023-08-06T08:44:42.440Z,99956.28
2023-08-06T08:47:11.264Z,99959.25
2023-08-06T08:49:39.791Z,99955.38
2023-08-06T08:52:09.033Z,99958.59
2023-08-06T08:54:37.497Z,99946.19
2023-08-06T08:57:05.239Z,99948.91
2023-08-06T08:59:35.062Z,99942.78
2023-08-06T09:02:03.014Z,99947.50
2023-08-06T09:04:35.657Z,99937.34
2023-08-06T09:07:03.471Z,99930.03
2023-08-06T09:09:34.889Z,99917.34
2023-08-06T09:12:03.704Z,99916.19
2023-08-06T09:14:30.919Z,99909.94
2023-08-06T09:16:59.019Z,99908.09
2023-08-06T09:19:28.267Z,99907.00
2023-08-06T09:21:57.332Z,99904.84
2023-08-06T09:24:24.840Z,99902.06
2023-08-06T09:26:52.080Z,99914.00
2023-08-06T09:29:19.413Z,99907.06
2023-08-06T09:31:55.745Z,99908.69
2023-08-06T09:34:24.133Z,99901.66
2023-08-06T09:36:53.570Z,99899.38
2023-08-06T09:39:32.553Z,99902.13
2023-08-06T09:42:04.091Z,99907.97
2023-08-06T09:44:32.073Z,99902.50
2023-08-06T09:47:00.872Z,99900.16
2023-08-06T09:49:42.698Z,99893.97
2023-08-06T09:52:17.147Z,99889.41
2023-08-06T09:54:45.229Z,99884.38
2023-08-06T09:57:14.517Z,99879.31
2023-08-06T09:59:43.897Z,99885.63
2023-08-06T10:02:14.825Z,99880.16
2023-08-06T10:04:51.931Z,99874.75
2023-08-06T10:07:25.206Z,99868.69
2023-08-06T10:09:52.652Z,99861.72
2023-08-06T10:12:21.011Z,99867.56
2023-08-06T10:14:50.402Z,99846.06
2023-08-06T10:17:18.256Z,99862.97
2023-08-06T10:19:46.168Z,99867.38
2023-08-06T10:22:18.734Z,99849.09
2023-08-06T10:24:55.128Z,99851.88
2023-08-06T10:27:34.295Z,99859.19
2023-08-06T10:30:30.794Z,99859.56
2023-08-06T10:33:01.719Z,99857.19
2023-08-06T10:35:38.085Z,99852.50
2023-08-06T10:38:08.578Z,99852.38
2023-08-06T10:40:40.886Z,99859.34
2023-08-06T10:43:09.983Z,99852.38
2023-08-06T10:45:39.020Z,99846.06
2023-08-06T10:48:06.450Z,99845.28
2023-08-06T10:50:33.794Z,99840.56
2023-08-06T10:53:07.124Z,99839.34
2023-08-06T10:55:34.386Z,99838.09
2023-08-06T10:58:01.674Z,99838.56
2023-08-06T11:00:28.928Z,99821.81
2023-08-06T11:02:56.552Z,99819.22
2023-08-06T11:05:23.851Z,99815.78
2023-08-06T11:07:53.369Z,99812.88
2023-08-06T11:10:20.479Z,99802.06
2023-08-06T11:12:47.811Z,99793.94
2023-08-06T11:15:15.042Z,99790.47
2023-08-06T11:17:43.352Z,99798.28
2023-08-06T11:20:11.224Z,99787.13
2023-08-06T11:22:39.600Z,99796.94
2023-08-06T11:25:08.218Z,99798.94
2023-08-06T11:27:35.543Z,99784.19
2023-08-06T11:30:02.766Z,99793.53
2023-08-06T11:32:29.971Z,99789.31
2023-08-06T11:34:57.585Z,99788.84
2023-08-06T11:37:26.456Z,99794.69
2023-08-06T11:39:54.509Z,99783.00
2023-08-06T11:42:21.705Z,99788.09
2023-08-06T11:44:49.149Z,99786.59
2023-08-06T11:47:18.611Z,99767.50
2023-08-06T11:49:47.395Z,99782.28
2023-08-06T11:52:20.289Z,99788.44
2023-08-06T11:55:16.030Z,99770.56
2023-08-06T11:57:47.098Z,99772.06
2023-08-06T12:00:15.178Z,99766.66
2023-08-06T12:02:43.915Z,99771.25
2023-08-06T12:05:12.309Z,99765.47
2023-08-06T12:07:42.699Z,99765.38
2023-08-06T12:10:10.282Z,99759.25
2023-08-06T12:12:38.762Z,99746.00
2023-08-06T12:15:08.858Z,99740.66
2023-08-06T12:17:37.194Z,99735.19
2023-08-06T12:20:05.829Z,99733.63
2023-08-06T12:22:36.158Z,99727.88
2023-08-06T12:25:09.611Z,99730.19
2023-08-06T12:27:37.665Z,99716.56
2023-08-06T12:30:06.322Z,99718.19
2023-08-06T12:32:34.428Z,99705.81
2023-08-06T12:35:02.182Z,99709.31
2023-08-06T12:37:30.110Z,99716.44
2023-08-06T12:39:57.336Z,99704.75
2023-08-06T12:42:25.605Z,99712.59
2023-08-06T12:44:52.897Z,99718.78
2023-08-06T12:47:21.300Z,99716.03
2023-08-06T12:49:48.717Z,99709.44
2023-08-06T12:52:16.492Z,99717.22
2023-08-06T12:54:43.967Z,99718.00
2023-08-06T12:57:11.540Z,99713.41
2023-08-06T12:59:38.755Z,99711.09
2023-08-06T13:02:06.084Z,99712.72
2023-08-06T13:04:35.503Z,99705.75
2023-08-06T13:07:02.941Z,99715.13
2023-08-06T13:09:32.766Z,99724.16
2023-08-06T13:12:01.460Z,99721.34
2023-08-06T13:14:29.818Z,99726.78
2023-08-06T13:16:57.624Z,99728.03
2023-08-06T13:19:24.928Z,99735.44
2023-08-06T13:21:51.998Z,99737.44
2023-08-06T13:24:21.940Z,99723.00
2023-08-06T13:26:49.295Z,99734.75
2023-08-06T13:29:16.428Z,99740.19
2023-08-06T13:31:43.761Z,99746.47
2023-08-06T13:34:10.940Z,99743.38
2023-08-06T13:36:38.364Z,99735.50
2023-08-06T13:39:06.539Z,99755.81
2023-08-06T13:41:33.764Z,99748.00
2023-08-06T13:44:01.050Z,99731.66
2023-08-06T13:46:28.476Z,99763.59
2023-08-06T13:48:55.746Z,99765.53
2023-08-06T13:51:23.070Z,99775.28
2023-08-06T13:53:50.349Z,99783.03
2023-08-06T13:56:19.064Z,99787.31
2023-08-06T13:58:46.441Z,99787.03
2023-08-06T14:01:14.713Z,99793.31
2023-08-06T14:03:42.319Z,99798.78
2023-08-06T14:06:09.879Z,99799.53
2023-08-06T14:08:39.340Z,99808.41
2023-08-06T14:11:07.414Z,99805.00
2023-08-06T14:13:35.075Z,99806.56
2023-08-06T14:16:05.384Z,99807.94
2023-08-06T14:18:35.277Z,99810.38
2023-08-06T14:21:02.776Z,99799.75
2023-08-06T14:23:30.010Z,99822.81
2023-08-06T14:25:57.453Z,99819.72
2023-08-06T14:28:24.744Z,99807.34
2023-08-06T14:30:55.739Z,99814.84
2023-08-06T14:33:27.841Z,99823.41
2023-08-06T14:35:55.406Z,99820.66
2023-08-06T14:38:22.662Z,99824.53
2023-08-06T14:40:49.999Z,99835.91
2023-08-06T14:43:17.256Z,99832.44
2023-08-06T14:45:46.151Z,99842.53
2023-08-06T14:48:13.448Z,99829.28
2023-08-06T14:50:42.418Z,99838.75
2023-08-06T14:53:11.660Z,99841.81
2023-08-06T14:55:38.950Z,99851.25
2023-08-06T14:58:06.374Z,99854.75
2023-08-06T15:00:33.762Z,99869.22
2023-08-06T15:03:00.947Z,99872.25
2023-08-06T15:05:28.245Z,99884.00
2023-08-06T15:07:55.720Z,99886.75
2023-08-06T15:10:27.805Z,99889.41
2023-08-06T15:12:57.332Z,99892.44
2023-08-06T15:15:24.656Z,99897.91
2023-08-06T15:17:56.100Z,99906.44
2023-08-06T15:20:24.399Z,99906.50
2023-08-06T15:22:51.547Z,99902.28
2023-08-06T15:25:18.684Z,99895.25
2023-08-06T15:27:46.379Z,99916.66
2023-08-06T15:30:13.741Z,99918.66
2023-08-06T15:32:45.749Z,99922.13
2023-08-06T15:35:13.803Z,99925.31
2023-08-06T15:37:40.981Z,99922.56
2023-08-06T15:40:08.645Z,99927.66
2023-08-06T15:42:35.871Z,99921.91
2023-08-06T15:45:04.421Z,99939.84
2023-08-06T15:47:32.297Z,99941.00
2023-08-06T15:49:59.887Z,99955.09
2023-08-06T15:52:31.334Z,99959.78
2023-08-06T15:55:00.516Z,99966.50
2023-08-06T15:57:27.608Z,99971.63
2023-08-06T15:59:54.893Z,99981.00
2023-08-06T16:02:22.295Z,99981.81
2023-08-06T16:04:49.693Z,99987.34
2023-08-06T16:07:17.283Z,100020.06
2023-08-06T16:09:44.617Z,100017.81
2023-08-06T16:12:12.145Z,100026.47
2023-08-06T16:14:40.129Z,100036.66
2023-08-06T16:17:07.288Z,100042.94
2023-08-06T16:19:35.492Z,100065.88
2023-08-06T16:22:02.652Z,100060.91
2023-08-06T16:24:30.004Z,100053.94
2023-08-06T16:26:57.516Z,100072.25
2023-08-06T16:29:24.757Z,100079.59
2023-08-06T16:31:52.820Z,100078.84
2023-08-06T16:34:24.940Z,100073.38
2023-08-06T16:36:52.631Z,100067.13
2023-08-06T16:39:22.598Z,100064.75
2023-08-06T16:41:50.037Z,100064.38
2023-08-06T16:44:17.226Z,100060.09
2023-08-06T16:46:44.546Z,100065.63
2023-08-06T16:49:11.890Z,100061.69
2023-08-06T16:51:39.235Z,100051.09
2023-08-06T16:54:06.549Z,100057.63
2023-08-06T16:56:33.763Z,100053.00
2023-08-06T16:59:01.677Z,100049.81
2023-08-06T17:01:29.058Z,100054.13
2023-08-06T17:03:56.751Z,100038.41
2023-08-06T17:06:24.505Z,100041.13
2023-08-06T17:08:52.086Z,100044.88
2023-08-06T17:11:19.443Z,100041.00
2023-08-06T17:13:48.643Z,100044.84
2023-08-06T17:16:18.046Z,100046.03
2023-08-06T17:18:45.550Z,100045.72
2023-08-06T17:21:15.080Z,100044.56
2023-08-06T17:23:42.207Z,100056.59
2023-08-06T17:26:12.349Z,100064.44
2023-08-06T17:28:39.556Z,100070.94
2023-08-06T17:31:08.354Z,100082.19
2023-08-06T17:33:35.687Z,100078.16
2023-08-06T17:36:02.990Z,100085.88
2023-08-06T17:38:30.102Z,100089.88
2023-08-06T17:40:59.106Z,100082.03
2023-08-06T17:43:26.269Z,100084.28
2023-08-06T17:45:53.612Z,100082.78
2023-08-06T17:48:21.007Z,100090.53
2023-08-06T17:50:50.319Z,100086.31
2023-08-06T17:53:17.524Z,100073.38
2023-08-06T17:55:44.670Z,100079.56
2023-08-06T17:58:14.550Z,100077.19
2023-08-06T18:00:45.644Z,100080.56
2023-08-06T18:03:13.162Z,100074.00
2023-08-06T18:05:40.525Z,100069.34
2023-08-06T18:08:07.835Z,100075.63
2023-08-06T18:10:35.347Z,100079.47
2023-08-06T18:13:02.574Z,100086.50
2023-08-06T18:15:30.184Z,100084.91
2023-08-06T18:17:57.760Z,100083.63
2023-08-06T18:20:25.120Z,100074.66
2023-08-06T18:22:52.472Z,100070.78
2023-08-06T18:25:19.863Z,100062.56
2023-08-06T18:27:48.066Z,100069.22
2023-08-06T18:30:15.329Z,100069.94
2023-08-06T18:32:42.612Z,100065.69
2023-08-06T18:35:11.268Z,100066.03
2023-08-06T18:37:39.934Z,100066.78
2023-08-06T18:40:10.840Z,100057.50
2023-08-06T18:42:40.879Z,100061.38
2023-08-06T18:45:10.640Z,100066.00
2023-08-06T18:47:38.041Z,100065.84
2023-08-06T18:50:06.252Z,100048.19
2023-08-06T18:52:33.538Z,100038.59
2023-08-06T18:55:00.871Z,100036.25
2023-08-06T18:57:30.522Z,100041.75
2023-08-06T18:59:58.974Z,100047.88
2023-08-06T19:02:26.201Z,100034.69
2023-08-06T19:04:55.864Z,100041.69
2023-08-06T19:07:23.708Z,100045.13
2023-08-06T19:09:51.757Z,100033.78
2023-08-06T19:12:22.145Z,100033.75
2023-08-06T19:14:49.522Z,100035.69
2023-08-06T19:17:16.800Z,100024.38
2023-08-06T19:19:45.141Z,100015.41
2023-08-06T19:22:12.649Z,100012.47
2023-08-06T19:24:41.411Z,100019.97
2023-08-06T19:27:09.273Z,100016.00
2023-08-06T19:29:36.726Z,100015.50
2023-08-06T19:32:06.760Z,100000.75
2023-08-06T19:34:37.201Z,99998.00
2023-08-06T19:37:04.850Z,99998.91
2023-08-06T19:39:32.206Z,99993.81
2023-08-06T19:41:59.350Z,99992.25
2023-08-06T19:44:31.428Z,99985.13
2023-08-06T19:46:58.666Z,99988.25
2023-08-06T19:49:26.048Z,99977.69
2023-08-06T19:51:53.486Z,99975.28
2023-08-06T19:54:20.976Z,99965.53
2023-08-06T19:56:48.322Z,99974.91
2023-08-06T19:59:15.667Z,99981.84
2023-08-06T20:01:42.991Z,99967.66
2023-08-06T20:04:10.384Z,99967.31
2023-08-06T20:06:38.196Z,99966.22
2023-08-06T20:09:05.337Z,99977.06
2023-08-06T20:11:32.834Z,99975.50
2023-08-06T20:14:00.099Z,99969.63
2023-08-06T20:16:27.505Z,99970.84
2023-08-06T20:18:54.809Z,99986.31
2023-08-06T20:21:22.045Z,99998.72
2023-08-06T20:23:49.212Z,99994.38
2023-08-06T20:26:16.442Z,100017.31
2023-08-06T20:28:43.727Z,100008.69
2023-08-06T20:31:11.366Z,100019.66
2023-08-06T20:33:39.028Z,100022.72
2023-08-06T20:36:06.425Z,100018.47
2023-08-06T20:38:33.736Z,100020.41
2023-08-06T20:41:00.935Z,100028.84
2023-08-06T20:43:29.421Z,100032.00
2023-08-06T20:45:59.003Z,100035.81
2023-08-06T20:48:27.355Z,100037.00
2023-08-06T20:50:54.862Z,100040.47
2023-08-06T20:53:25.340Z,100056.00
2023-08-06T20:56:03.082Z,100058.22
2023-08-06T20:58:31.127Z,100048.91
2023-08-06T21:01:00.094Z,100050.84
2023-08-06T21:03:28.439Z,100051.91
2023-08-06T21:06:00.945Z,100060.06
2023-08-06T21:08:28.403Z,100060.41
2023-08-06T21:10:55.640Z,100060.75
2023-08-06T21:13:22.939Z,100055.66
2023-08-06T21:16:03.528Z,100073.59
2023-08-06T21:18:35.161Z,100077.38
2023-08-06T21:21:03.609Z,100078.06
2023-08-06T21:23:31.187Z,100086.94
2023-08-06T21:26:05.639Z,100089.31
2023-08-06T21:28:34.610Z,100082.66
2023-08-06T21:31:10.460Z,100098.63
2023-08-06T21:33:38.835Z,100094.69
2023-08-06T21:36:08.204Z,100092.84
2023-08-06T21:38:37.405Z,100096.19
2023-08-06T21:41:12.511Z,100098.19
2023-08-06T21:43:44.913Z,100093.78
2023-08-06T21:46:14.282Z,100101.59
2023-08-06T21:48:44.716Z,100094.94
2023-08-06T21:51:15.179Z,100098.09
2023-08-06T21:53:42.786Z,100079.97
2023-08-06T21:56:11.958Z,100097.19
2023-08-06T21:58:47.313Z,100092.94
2023-08-06T22:01:16.259Z,100089.31
2023-08-06T22:03:46.764Z,100093.22
2023-08-06T22:06:14.197Z,100097.88
2023-08-06T22:08:42.337Z,100091.94
2023-08-06T22:11:10.217Z,100093.13
2023-08-06T22:13:39.311Z,100108.78
2023-08-06T22:16:08.138Z,100104.50
2023-08-06T22:18:35.650Z,100111.84
2023-08-06T22:21:02.992Z,100099.44
2023-08-06T22:23:30.308Z,100098.16
2023-08-06T22:25:57.590Z,100104.81
2023-08-06T22:28:25.626Z,100104.75
2023-08-06T22:30:53.196Z,100100.09
2023-08-06T22:33:22.004Z,100097.44
2023-08-06T22:35:49.296Z,100098.59
2023-08-06T22:38:16.519Z,100093.59
2023-08-06T22:40:43.826Z,100096.25
2023-08-06T22:43:11.151Z,100090.06
2023-08-06T22:45:38.356Z,100092.78
2023-08-06T22:48:05.853Z,100086.59
2023-08-06T22:50:33.138Z,100087.00
2023-08-06T22:53:00.614Z,100090.50
2023-08-06T22:57:57.822Z,100079.47
2023-08-06T23:00:25.158Z,100065.00
2023-08-06T23:03:07.237Z,100076.31
2023-08-06T23:05:38.148Z,100066.66
2023-08-06T23:08:05.682Z,100066.50
2023-08-06T23:10:33.107Z,100063.38
2023-08-06T23:13:00.336Z,100066.88
2023-08-06T23:15:27.505Z,100068.03
2023-08-06T23:17:54.818Z,100067.25
2023-08-06T23:20:21.988Z,100062.94
2023-08-06T23:22:49.195Z,100064.00
2023-08-06T23:25:16.414Z,100060.34
2023-08-06T23:27:43.727Z,100060.00
2023-08-06T23:30:12.082Z,100053.81
2023-08-06T23:32:39.458Z,100057.72
2023-08-06T23:35:07.150Z,100060.06
2023-08-06T23:37:34.529Z,100055.41
2023-08-06T23:40:01.958Z,100045.09
2023-08-06T23:42:31.108Z,100062.28
2023-08-06T23:44:58.420Z,100065.00
2023-08-06T23:47:25.799Z,100062.56
2023-08-06T23:49:53.062Z,100057.22
2023-08-06T23:52:20.329Z,100060.72
2023-08-06T23:54:47.631Z,100042.38
2023-08-06T23:57:14.949Z,100055.34
2023-08-06T23:59:42.122Z,100058.44
